createdAt,value
2018-05-25T18:01:05.377Z,27.08
2018-05-25T18:01:28.666Z,26.58
2018-05-25T18:04:52.156Z,26.47
2018-05-25T18:05:15.490Z,27.00
2018-05-25T18:05:38.848Z,27.26
2018-05-25T18:06:02.212Z,27.57
2018-05-25T18:06:25.624Z,27.64
2018-05-25T18:06:50.186Z,27.61
2018-05-25T18:11:53.612Z,26.90
2018-05-25T18:16:57.023Z,26.04
2018-05-25T18:22:00.489Z,25.89
2018-05-25T18:27:05.283Z,25.74
2018-05-25T18:32:09.044Z,25.31
2018-05-25T18:37:12.468Z,24.66
2018-05-25T18:42:16.620Z,23.91
2018-05-25T18:47:20.057Z,23.31
2018-05-25T18:52:24.267Z,22.81
2018-05-25T18:57:27.680Z,22.37
2018-05-25T19:02:31.224Z,21.68
2018-05-25T19:07:34.619Z,21.03
2018-05-25T19:12:38.002Z,20.57
2018-05-25T19:17:42.174Z,20.13
2018-05-25T19:22:48.056Z,19.73
2018-05-25T19:27:51.509Z,19.37
2018-05-25T19:32:55.350Z,19.15
2018-05-25T19:37:59.166Z,18.97
2018-05-25T19:43:02.964Z,18.77
2018-05-25T19:48:07.320Z,18.49
2018-05-25T19:53:11.208Z,18.30
2018-05-25T19:58:14.855Z,18.13
2018-05-25T20:03:18.241Z,17.97
2018-05-25T20:08:22.414Z,17.85
2018-05-25T20:13:26.702Z,17.82
2018-05-25T20:18:30.202Z,17.72
2018-05-25T20:23:33.596Z,17.68
2018-05-25T20:28:39.336Z,17.65
2018-05-25T20:33:43.179Z,17.47
2018-05-25T20:38:46.992Z,17.29
2018-05-25T20:43:51.208Z,17.13
2018-05-25T20:48:54.710Z,16.96
2018-05-25T20:53:58.094Z,16.87
2018-05-25T20:59:01.514Z,16.76
2018-05-25T21:04:05.303Z,16.76
2018-05-25T21:09:08.748Z,16.63
2018-05-25T21:14:12.182Z,16.37
2018-05-25T21:19:15.574Z,16.25
2018-05-25T21:24:19.392Z,16.25
2018-05-25T21:29:23.546Z,16.13
2018-05-25T21:39:45.382Z,15.93
2018-05-25T21:44:49.225Z,15.91
2018-05-25T21:49:53.047Z,15.88
2018-05-25T21:54:56.452Z,15.78
2018-05-25T22:00:00.616Z,15.65
2018-05-25T22:05:04.061Z,15.63
2018-05-25T22:10:07.444Z,15.52
2018-05-25T22:15:10.860Z,15.38
2018-05-25T22:20:14.235Z,15.25
2018-05-25T22:25:17.669Z,15.17
2018-05-25T22:30:23.833Z,15.08
2018-05-25T22:35:27.684Z,14.83
2018-05-25T22:40:31.880Z,14.71
2018-05-25T22:45:52.869Z,14.54
2018-05-25T22:51:14.276Z,14.63
2018-05-25T22:56:17.666Z,14.73
2018-05-25T23:01:21.440Z,14.74
2018-05-25T23:06:25.959Z,14.59
2018-05-25T23:11:29.788Z,14.59
2018-05-25T23:16:33.676Z,14.54
2018-05-25T23:21:39.599Z,14.53
2018-05-25T23:26:43.119Z,14.52
2018-05-25T23:31:48.187Z,14.55
2018-05-25T23:36:52.481Z,14.56
2018-05-25T23:41:56.410Z,14.40
2018-05-25T23:46:59.998Z,14.10
2018-05-25T23:52:03.440Z,14.08
2018-05-25T23:57:07.280Z,14.12
